Time;durP1;ratioP1;P1;durP2;ratioP2;P2;SDS_P1;SDS_P2;PMS_P1;PMS_P2;Temp;Humidity;BMP_temperature;BMP_pressure;BME280_temperature;BME280_humidity;BME280_pressure;Samples;Min_cycle;Max_cycle;Signal;HPM_P1;HPM_P2
2021/12/08 00:00:59;;;;;;;;;0.75;0.75;;;;;7.72;86.92;99246.44;5060267;28;45219;-61
2021/12/08 00:03:28;;;;;;;;;2.75;1.00;;;;;7.68;85.75;99254.38;5057686;28;45292;-61
2021/12/08 00:05:54;;;;;;;;;4.25;0.75;;;;;7.58;85.22;99253.88;5053284;28;45568;-62
2021/12/08 00:08:21;;;;;;;;;0.25;0.25;;;;;7.60;86.45;99258.06;5057213;28;46083;-62
2021/12/08 00:13:35;;;;;;;;;2.25;0.00;;;;;7.60;86.07;99262.41;5054919;28;45315;-61
2021/12/08 00:16:10;;;;;;;;;0.00;0.00;;;;;7.57;87.36;99257.34;5059481;28;45472;-62
2021/12/08 00:18:44;;;;;;;;;1.00;1.00;;;;;7.58;87.58;99261.63;5058667;28;47651;-62
2021/12/08 00:21:10;;;;;;;;;0.00;0.00;;;;;7.56;87.73;99248.75;5055111;28;45776;-60
2021/12/08 00:23:35;;;;;;;;;1.00;1.00;;;;;7.55;88.25;99254.00;5056542;28;45537;-60
2021/12/08 00:26:01;;;;;;;;;1.75;1.00;;;;;7.52;87.37;99257.53;5057114;28;45755;-60
2021/12/08 00:28:27;;;;;;;;;1.00;0.00;;;;;7.51;88.23;99262.78;5057059;28;45513;-60
2021/12/08 00:30:55;;;;;;;;;1.00;0.00;;;;;7.53;88.22;99253.22;5060485;28;45350;-61
2021/12/08 00:33:21;;;;;;;;;2.00;0.00;;;;;7.52;87.97;99265.31;5059002;28;45233;-60
2021/12/08 00:35:49;;;;;;;;;2.00;1.00;;;;;7.52;89.22;99246.38;5057778;28;45545;-60
2021/12/08 00:38:19;;;;;;;;;1.00;0.00;;;;;7.50;87.24;99246.44;5057479;28;46188;-60
2021/12/08 00:40:46;;;;;;;;;1.25;0.00;;;;;7.51;88.45;99252.44;5058099;28;45786;-60
2021/12/08 00:43:13;;;;;;;;;1.00;0.00;;;;;7.52;88.61;99259.28;5056747;28;45751;-60
2021/12/08 00:45:38;;;;;;;;;0.00;0.00;;;;;7.49;86.47;99277.50;5058047;28;45615;-61
2021/12/08 00:48:05;;;;;;;;;0.00;0.00;;;;;7.48;86.46;99274.09;5057585;28;45611;-61
2021/12/08 00:50:34;;;;;;;;;1.25;0.00;;;;;7.42;84.83;99289.84;5057528;28;45840;-61
2021/12/08 00:52:59;;;;;;;;;0.75;0.75;;;;;7.44;86.39;99284.59;5057750;28;45424;-62
2021/12/08 00:55:26;;;;;;;;;0.00;0.00;;;;;7.43;85.56;99285.50;5057908;28;46127;-61
2021/12/08 00:57:52;;;;;;;;;0.00;0.00;;;;;7.39;87.11;99289.09;5057651;28;45442;-61
2021/12/08 01:00:25;;;;;;;;;1.00;1.00;;;;;7.37;85.60;99302.06;5057675;28;45340;-61
2021/12/08 01:02:50;;;;;;;;;0.00;0.00;;;;;7.41;87.32;99303.66;5057687;28;45710;-61
2021/12/08 01:05:19;;;;;;;;;0.25;0.00;;;;;7.40;86.33;99294.19;5057957;28;45346;-64
2021/12/08 01:07:45;;;;;;;;;0.00;0.00;;;;;7.46;88.37;99286.22;5059718;28;47160;-64
2021/12/08 01:10:17;;;;;;;;;0.00;0.00;;;;;7.51;88.15;99288.63;5058770;28;45811;-64
2021/12/08 01:12:43;;;;;;;;;1.00;0.00;;;;;7.50;87.34;99274.03;5047561;28;45236;-64
2021/12/08 01:15:10;;;;;;;;;2.00;0.00;;;;;7.43;87.99;99281.19;5046877;28;45518;-65
2021/12/08 01:17:37;;;;;;;;;0.00;0.00;;;;;7.39;87.12;99277.00;5060130;28;45426;-65
2021/12/08 01:20:05;;;;;;;;;2.00;1.25;;;;;7.33;87.71;99279.81;5059451;28;45705;-65
2021/12/08 01:22:30;;;;;;;;;1.75;1.00;;;;;7.22;85.32;99277.66;5055058;28;45336;-65
2021/12/08 01:24:55;;;;;;;;;0.00;0.00;;;;;7.16;87.51;99279.59;5059156;28;45453;-65
2021/12/08 01:27:21;;;;;;;;;0.00;0.00;;;;;7.13;86.00;99271.97;5059690;28;46340;-65
2021/12/08 01:29:48;;;;;;;;;0.00;0.00;;;;;7.09;87.24;99258.34;5058572;28;45342;-65
2021/12/08 01:32:13;;;;;;;;;0.50;0.50;;;;;7.09;87.80;99244.56;5059609;28;45446;-64
2021/12/08 01:34:39;;;;;;;;;0.00;0.00;;;;;7.07;88.56;99239.47;5059803;28;45331;-64
2021/12/08 01:37:04;;;;;;;;;0.50;0.50;;;;;7.06;87.87;99240.38;5059231;28;46000;-65
2021/12/08 01:39:29;;;;;;;;;0.00;0.00;;;;;7.04;87.91;99244.75;5059559;28;45395;-65
2021/12/08 01:41:55;;;;;;;;;0.00;0.00;;;;;7.03;88.36;99237.06;5058320;28;45557;-65
2021/12/08 01:47:05;;;;;;;;;2.00;0.00;;;;;6.98;88.92;99248.38;5059722;28;45288;-64
2021/12/08 01:49:31;;;;;;;;;1.00;1.00;;;;;7.00;89.61;99256.91;5059145;28;45342;-64
2021/12/08 01:51:56;;;;;;;;;1.00;0.00;;;;;6.98;88.97;99278.53;5059742;28;45331;-63
2021/12/08 01:54:22;;;;;;;;;1.75;1.00;;;;;6.96;89.68;99294.09;5059543;28;45461;-62
2021/12/08 01:56:47;;;;;;;;;0.00;0.00;;;;;6.96;89.47;99309.59;5059598;28;45367;-63
2021/12/08 01:59:13;;;;;;;;;2.00;0.00;;;;;6.98;89.94;99306.94;5061202;28;45311;-63
2021/12/08 02:01:41;;;;;;;;;0.00;0.00;;;;;6.96;88.47;99303.56;5061929;28;45457;-62
2021/12/08 02:04:06;;;;;;;;;1.00;0.00;;;;;6.93;89.13;99307.13;5062827;28;45316;-63
2021/12/08 02:06:36;;;;;;;;;3.00;0.50;;;;;6.91;88.89;99311.50;5062537;28;46130;-63
2021/12/08 02:09:05;;;;;;;;;0.00;0.00;;;;;6.91;89.59;99296.00;5062785;28;45745;-62
2021/12/08 02:11:30;;;;;;;;;0.25;0.00;;;;;6.91;88.88;99293.41;5063277;28;45212;-62
2021/12/08 02:14:00;;;;;;;;;0.00;0.00;;;;;6.90;88.85;99283.16;5058930;28;45470;-62
2021/12/08 02:16:26;;;;;;;;;2.00;0.00;;;;;6.88;88.82;99306.44;5054595;28;46335;-62
2021/12/08 02:18:53;;;;;;;;;1.50;0.00;;;;;6.87;89.36;99330.56;5062665;28;45326;-63
2021/12/08 02:21:19;;;;;;;;;1.75;0.00;;;;;6.85;88.98;99322.03;5058073;28;45370;-63
2021/12/08 02:23:45;;;;;;;;;2.00;0.50;;;;;6.85;89.10;99341.88;5060893;28;45601;-62
2021/12/08 02:26:10;;;;;;;;;1.25;0.00;;;;;6.85;89.96;99339.28;5061487;28;45290;-62
2021/12/08 02:28:36;;;;;;;;;1.00;0.00;;;;;6.80;88.94;99329.09;5060889;28;45549;-62
2021/12/08 02:31:05;;;;;;;;;0.75;0.75;;;;;6.79;89.18;99322.25;5061463;28;45602;-63
2021/12/08 02:47:52;;;;;;;;;2.50;1.00;;;;;6.66;88.63;99321.00;5059251;28;45490;-62
2021/12/08 02:50:03;;;;;;;;;2.00;0.75;;;;;6.66;90.04;99321.00;5057963;28;45340;-63
2021/12/08 02:52:29;;;;;;;;;0.00;0.00;;;;;6.65;90.73;99330.47;5059115;28;45423;-62
2021/12/08 02:54:54;;;;;;;;;0.00;0.00;;;;;6.66;90.22;99333.91;5058764;28;45379;-63
2021/12/08 02:57:27;;;;;;;;;1.00;0.00;;;;;6.66;90.34;99339.91;5060135;28;45336;-63
2021/12/08 02:59:52;;;;;;;;;0.50;0.00;;;;;6.62;90.08;99348.66;5049576;28;45830;-63
2021/12/08 03:02:18;;;;;;;;;2.00;1.00;;;;;6.59;90.54;99347.88;5054912;28;45307;-62
2021/12/08 03:04:45;;;;;;;;;0.75;0.75;;;;;6.59;89.29;99337.56;5061079;28;45336;-62
2021/12/08 03:07:10;;;;;;;;;0.00;0.00;;;;;6.59;90.78;99325.50;5060736;28;45442;-62
2021/12/08 03:09:36;;;;;;;;;2.50;1.00;;;;;6.59;90.08;99329.81;5060524;28;45304;-62
2021/12/08 03:12:02;;;;;;;;;0.00;0.00;;;;;6.54;87.46;99339.47;5058713;28;45387;-62
2021/12/08 03:14:30;;;;;;;;;0.00;0.00;;;;;6.53;89.47;99327.47;5037352;28;45630;-62
2021/12/08 03:17:03;;;;;;;;;0.75;0.75;;;;;6.48;87.14;99327.63;5053816;28;46935;-62
2021/12/08 03:19:30;;;;;;;;;0.00;0.00;;;;;6.52;89.81;99318.03;5058592;28;45471;-62
2021/12/08 03:21:56;;;;;;;;;0.00;0.00;;;;;6.53;90.13;99319.72;5051279;28;45436;-62
2021/12/08 03:24:29;;;;;;;;;1.00;0.00;;;;;6.51;88.72;99324.94;5049738;28;45564;-63
2021/12/08 03:29:39;;;;;;;;;0.00;0.00;;;;;6.49;89.76;99320.72;5058714;28;45866;-61
2021/12/08 03:32:11;;;;;;;;;1.00;1.00;;;;;6.50;89.48;99320.66;5056751;28;45367;-61
2021/12/08 03:34:42;;;;;;;;;2.00;0.50;;;;;6.48;88.81;99312.13;5058465;28;45399;-59
2021/12/08 03:37:09;;;;;;;;;0.00;0.00;;;;;6.48;89.29;99303.56;5033041;28;46404;-60
2021/12/08 03:39:38;;;;;;;;;2.00;1.00;;;;;6.47;89.69;99296.72;5057869;28;45660;-59
2021/12/08 03:42:04;;;;;;;;;1.50;0.00;;;;;6.46;89.17;99287.28;5059751;28;45328;-60
2021/12/08 03:44:30;;;;;;;;;1.50;0.00;;;;;6.45;90.13;99295.91;5060240;28;45377;-60
2021/12/08 03:47:00;;;;;;;;;0.75;0.00;;;;;6.44;89.77;99309.72;5060923;28;45819;-61
2021/12/08 03:49:26;;;;;;;;;5.00;1.00;;;;;6.42;90.06;99304.59;5060112;28;45423;-62
2021/12/08 03:51:55;;;;;;;;;1.50;0.00;;;;;6.42;89.61;99308.94;5060948;28;45345;-61
2021/12/08 03:54:21;;;;;;;;;0.00;0.00;;;;;6.39;88.84;99300.38;5060153;28;45495;-61
2021/12/08 03:56:46;;;;;;;;;1.00;0.50;;;;;6.38;89.02;99292.69;5060053;28;45357;-61
2021/12/08 03:59:12;;;;;;;;;2.25;0.00;;;;;6.37;88.83;99304.72;5059969;28;45446;-61
2021/12/08 04:01:37;;;;;;;;;0.25;0.00;;;;;6.33;89.49;99310.06;5059303;28;45337;-61
2021/12/08 04:04:07;;;;;;;;;2.00;2.00;;;;;6.35;90.14;99308.25;5056312;28;45367;-60
2021/12/08 04:06:42;;;;;;;;;1.00;0.00;;;;;6.31;90.16;99299.78;5060265;28;46312;-61
2021/12/08 04:09:26;;;;;;;;;1.50;1.00;;;;;6.34;90.15;99301.41;5059982;28;45248;-61
2021/12/08 04:11:52;;;;;;;;;0.00;0.00;;;;;6.32;89.48;99296.31;5060144;28;45314;-60
2021/12/08 04:14:22;;;;;;;;;3.50;1.00;;;;;6.30;89.60;99294.69;5053927;28;45308;-60
2021/12/08 04:16:53;;;;;;;;;1.00;1.00;;;;;6.29;89.18;99303.31;5041753;28;46461;-60
2021/12/08 04:19:18;;;;;;;;;1.00;0.00;;;;;6.28;90.00;99294.75;5060529;28;45154;-60
2021/12/08 04:21:46;;;;;;;;;0.00;0.00;;;;;6.25;88.59;99299.16;5052852;28;45387;-60
2021/12/08 04:24:13;;;;;;;;;0.25;0.00;;;;;6.24;88.59;99308.63;5052767;28;45452;-60
2021/12/08 04:26:50;;;;;;;;;0.00;0.00;;;;;6.18;88.99;99301.06;5053296;28;45328;-59
2021/12/08 04:29:21;;;;;;;;;0.75;0.00;;;;;6.19;90.09;99300.19;5048906;28;45225;-60
2021/12/08 04:31:51;;;;;;;;;1.00;0.00;;;;;6.19;89.96;99315.66;5058147;28;45346;-60
2021/12/08 04:34:25;;;;;;;;;1.00;1.00;;;;;6.21;90.94;99290.69;5059815;28;45582;-60
2021/12/08 04:36:53;;;;;;;;;2.50;0.75;;;;;6.19;89.25;99304.50;5058778;28;47498;-60
2021/12/08 04:39:38;;;;;;;;;2.25;1.00;;;;;6.20;90.07;99301.03;5059785;28;45243;-61
2021/12/08 04:42:08;;;;;;;;;0.00;0.00;;;;;6.23;89.57;99286.31;5034044;28;45360;-62
2021/12/08 04:44:48;;;;;;;;;1.50;0.00;;;;;6.25;90.59;99287.09;5059060;28;45509;-60
2021/12/08 05:06:37;;;;;;;;;1.00;0.00;;;;;6.21;89.33;99316.47;5058551;28;45229;-64
2021/12/08 05:09:17;;;;;;;;;3.00;1.25;;;;;6.19;89.75;99318.25;5058842;28;46162;-63
2021/12/08 05:11:49;;;;;;;;;0.25;0.25;;;;;6.20;90.15;99321.66;5059311;28;45311;-63
2021/12/08 05:14:20;;;;;;;;;1.75;0.50;;;;;6.19;90.51;99307.06;5052446;28;45414;-63
2021/12/08 05:16:49;;;;;;;;;1.00;1.00;;;;;6.18;90.99;99324.28;5053049;28;45556;-64
2021/12/08 05:19:18;;;;;;;;;0.00;0.00;;;;;6.19;90.87;99336.28;5059068;28;46162;-63
2021/12/08 05:21:58;;;;;;;;;1.00;1.00;;;;;6.15;90.59;99332.13;5051885;28;45885;-63
2021/12/08 05:24:32;;;;;;;;;0.00;0.00;;;;;6.15;90.35;99337.28;5050069;28;45292;-61
2021/12/08 05:27:07;;;;;;;;;2.50;1.00;;;;;6.12;90.65;99329.66;5054761;28;45166;-60
2021/12/08 05:29:38;;;;;;;;;1.00;1.00;;;;;6.12;90.90;99334.81;5059146;28;46480;-60
2021/12/08 05:32:04;;;;;;;;;3.00;1.75;;;;;6.11;91.51;99333.13;5045530;28;45311;-60
2021/12/08 05:34:31;;;;;;;;;0.00;0.00;;;;;6.10;90.68;99349.50;5054519;28;45309;-62
2021/12/08 05:36:57;;;;;;;;;5.25;1.00;;;;;6.08;91.33;99346.13;5061987;28;45381;-62
2021/12/08 05:39:25;;;;;;;;;3.25;0.00;;;;;6.07;91.51;99344.44;5062402;28;46073;-62
2021/12/08 05:41:56;;;;;;;;;2.00;1.00;;;;;6.06;90.83;99347.91;5061883;28;45359;-62
2021/12/08 05:44:22;;;;;;;;;3.25;0.00;;;;;6.04;91.43;99341.97;5062426;28;45312;-62
2021/12/08 05:46:52;;;;;;;;;1.75;1.00;;;;;6.03;91.41;99338.53;5061720;28;45242;-62
2021/12/08 05:49:18;;;;;;;;;1.00;1.00;;;;;6.02;91.59;99328.28;5062095;28;46221;-62
2021/12/08 05:51:46;;;;;;;;;0.50;0.50;;;;;6.00;91.96;99328.28;5038601;28;45830;-62
2021/12/08 05:54:22;;;;;;;;;4.75;1.00;;;;;5.99;92.10;99352.41;5061847;28;45292;-62
2021/12/08 05:56:50;;;;;;;;;1.00;0.25;;;;;5.96;91.49;99342.19;5062585;28;45188;-62
2021/12/08 05:59:17;;;;;;;;;1.00;1.00;;;;;5.97;91.67;99343.03;5042974;28;47090;-64
2021/12/08 06:01:59;;;;;;;;;5.75;1.00;;;;;5.94;91.60;99328.50;5041362;28;45355;-61
2021/12/08 06:04:28;;;;;;;;;1.00;0.25;;;;;5.91;92.31;99344.06;5059583;28;45239;-63
2021/12/08 06:06:55;;;;;;;;;1.25;1.25;;;;;5.92;92.10;99329.44;5061968;28;45546;-60
2021/12/08 06:09:23;;;;;;;;;5.75;4.00;;;;;5.91;92.56;99320.88;5061186;28;45517;-61
2021/12/08 06:11:50;;;;;;;;;1.50;1.00;;;;;5.90;92.61;99349.28;5044149;28;45301;-63
2021/12/08 06:14:18;;;;;;;;;1.00;1.00;;;;;5.84;89.96;99332.22;5061130;28;45363;-62
2021/12/08 06:16:47;;;;;;;;;1.00;1.00;;;;;5.83;91.89;99329.69;5061696;28;45454;-62
2021/12/08 06:19:15;;;;;;;;;1.50;0.25;;;;;5.81;91.69;99327.19;5061015;28;45448;-62
2021/12/08 06:21:40;;;;;;;;;0.75;0.75;;;;;5.80;91.05;99331.47;5029536;28;45514;-62
2021/12/08 06:24:09;;;;;;;;;2.00;0.75;;;;;5.83;91.48;99329.69;5055289;28;45434;-62
2021/12/08 06:26:35;;;;;;;;;2.50;1.00;;;;;5.83;91.38;99327.13;5054994;28;45411;-62
2021/12/08 06:29:01;;;;;;;;;1.00;1.00;;;;;5.84;91.97;99337.38;5055172;28;46128;-61
2021/12/08 06:31:28;;;;;;;;;6.00;2.00;;;;;5.84;91.85;99334.81;5060131;28;45827;-61
2021/12/08 06:33:55;;;;;;;;;2.50;2.00;;;;;5.85;91.93;99354.53;5048896;28;45395;-60
2021/12/08 06:36:43;;;;;;;;;1.75;1.00;;;;;5.85;91.29;99351.13;5060035;28;45359;-61
2021/12/08 06:39:19;;;;;;;;;1.50;1.50;;;;;5.87;91.18;99357.06;5061810;28;45439;-61
2021/12/08 06:41:48;;;;;;;;;3.25;0.00;;;;;5.87;89.50;99368.22;5060539;28;45374;-61
2021/12/08 06:44:20;;;;;;;;;1.75;1.00;;;;;5.83;90.35;99365.78;5061121;28;45387;-61
2021/12/08 06:46:46;;;;;;;;;1.50;1.50;;;;;5.81;89.52;99368.41;5060307;28;45353;-62
2021/12/08 06:49:15;;;;;;;;;2.00;0.25;;;;;5.82;90.58;99375.25;5061487;28;46062;-61
2021/12/08 06:51:49;;;;;;;;;1.25;1.25;;;;;5.87;91.80;99372.53;5061577;28;45504;-61
2021/12/08 06:54:26;;;;;;;;;0.00;0.00;;;;;5.86;90.76;99365.69;5061429;28;45161;-61
2021/12/08 06:57:18;;;;;;;;;4.00;1.00;;;;;5.84;90.90;99372.63;5061652;28;45389;-61
2021/12/08 06:59:56;;;;;;;;;4.00;1.00;;;;;5.83;91.83;99363.22;5060931;28;47166;-61
2021/12/08 07:02:49;;;;;;;;;1.25;1.00;;;;;5.83;91.57;99365.78;5061414;28;45445;-61
2021/12/08 07:05:25;;;;;;;;;4.25;2.00;;;;;5.85;92.21;99362.28;5061302;28;45567;-61
2021/12/08 07:07:51;;;;;;;;;1.25;1.00;;;;;5.82;91.18;99364.94;5061483;28;45327;-61
2021/12/08 07:10:27;;;;;;;;;2.50;0.75;;;;;5.77;91.12;99374.53;5060124;28;47718;-61
2021/12/08 07:12:57;;;;;;;;;2.00;0.00;;;;;5.75;90.97;99372.00;5061690;28;45350;-61
2021/12/08 07:15:28;;;;;;;;;2.00;0.00;;;;;5.76;91.36;99372.84;5048460;28;45212;-60
2021/12/08 07:17:58;;;;;;;;;2.00;1.00;;;;;5.77;91.74;99380.53;5061412;28;45242;-61
2021/12/08 07:20:46;;;;;;;;;2.75;1.25;;;;;5.80;91.77;99393.31;5060350;28;46049;-61
2021/12/08 07:23:20;;;;;;;;;13.00;8.50;;;;;5.80;91.95;99388.16;5060858;28;45841;-61
2021/12/08 07:25:46;;;;;;;;;3.00;1.25;;;;;5.83;91.83;99400.16;5060494;28;45312;-61
2021/12/08 07:28:14;;;;;;;;;4.00;2.25;;;;;5.84;92.40;99385.53;5061182;28;45307;-61
2021/12/08 07:30:49;;;;;;;;;2.00;1.75;;;;;5.83;93.05;99386.41;5060915;28;45340;-61
2021/12/08 07:33:14;;;;;;;;;2.25;1.00;;;;;5.81;92.56;99401.94;5060758;28;45367;-60
2021/12/08 07:35:47;;;;;;;;;1.00;1.00;;;;;5.81;91.27;99409.66;5061006;28;45370;-60
2021/12/08 07:38:17;;;;;;;;;1.25;1.25;;;;;5.80;91.41;99416.53;5060003;28;45516;-60
2021/12/08 07:40:50;;;;;;;;;1.25;1.25;;;;;5.77;92.04;99416.63;5060643;28;46361;-59
2021/12/08 07:43:20;;;;;;;;;1.75;1.25;;;;;5.79;91.02;99425.16;5060369;28;45465;-59
2021/12/08 07:46:03;;;;;;;;;4.00;1.50;;;;;5.80;91.75;99433.72;5060871;28;45296;-60
2021/12/08 07:48:34;;;;;;;;;5.00;2.25;;;;;5.80;91.71;99439.72;5047864;28;45251;-60
2021/12/08 07:51:19;;;;;;;;;0.50;0.50;;;;;5.85;91.47;99442.19;5059025;28;45624;-60
2021/12/08 07:53:45;;;;;;;;;1.75;1.00;;;;;5.84;91.53;99431.94;5060731;28;45859;-60
2021/12/08 07:56:13;;;;;;;;;1.25;1.25;;;;;5.84;92.72;99439.66;5059688;28;45182;-61
2021/12/08 07:58:41;;;;;;;;;3.75;2.00;;;;;5.87;92.33;99434.41;5060769;28;45189;-60
2021/12/08 08:01:19;;;;;;;;;6.50;6.50;;;;;5.85;92.42;99431.88;5060397;28;46522;-60
2021/12/08 08:03:45;;;;;;;;;0.50;0.50;;;;;5.84;91.09;99434.50;5060409;28;45412;-59
2021/12/08 08:06:17;;;;;;;;;2.25;2.00;;;;;5.87;92.61;99421.53;5060271;28;45239;-60
2021/12/08 08:08:43;;;;;;;;;3.00;2.00;;;;;5.84;90.90;99421.63;5060390;28;45363;-60
2021/12/08 08:11:15;;;;;;;;;1.00;1.00;;;;;5.83;92.00;99422.50;5060585;28;45270;-60
2021/12/08 08:13:40;;;;;;;;;2.75;2.00;;;;;5.74;90.97;99411.56;5059934;28;45414;-59
2021/12/08 08:16:12;;;;;;;;;3.00;1.00;;;;;5.75;91.83;99426.13;5060501;28;45546;-60
2021/12/08 08:18:50;;;;;;;;;2.25;2.00;;;;;5.78;91.98;99420.03;5060199;28;45188;-61
2021/12/08 08:21:20;;;;;;;;;1.00;1.00;;;;;5.78;92.33;99430.34;5059661;28;45446;-62
2021/12/08 08:23:46;;;;;;;;;2.00;2.00;;;;;5.78;90.20;99438.09;5057951;28;45699;-62
2021/12/08 08:26:13;;;;;;;;;2.00;2.00;;;;;5.80;91.00;99436.31;5060325;28;45191;-63
2021/12/08 08:28:40;;;;;;;;;2.00;1.00;;;;;5.81;90.50;99443.19;5059863;28;45205;-60
2021/12/08 08:31:14;;;;;;;;;3.75;1.00;;;;;5.79;90.43;99452.66;5060144;28;45381;-61
2021/12/08 08:33:41;;;;;;;;;6.25;2.00;;;;;5.84;91.61;99453.41;5058595;28;45185;-63
2021/12/08 08:36:12;;;;;;;;;6.00;2.00;;;;;5.89;90.65;99466.16;5059871;28;45341;-64
2021/12/08 08:38:40;;;;;;;;;6.00;2.00;;;;;5.91;90.83;99467.81;5059502;28;45524;-65
2021/12/08 08:41:34;;;;;;;;;2.25;1.00;;;;;5.95;91.61;99472.00;5059924;28;45277;-64
2021/12/08 08:44:07;;;;;;;;;1.00;1.00;;;;;5.98;89.27;99471.06;5049954;28;45430;-63
2021/12/08 08:46:38;;;;;;;;;5.25;2.00;;;;;6.02;90.77;99455.47;5059340;28;45149;-63
2021/12/08 08:49:09;;;;;;;;;1.25;0.00;;;;;6.09;90.94;99448.41;5059675;28;45247;-61
2021/12/08 08:51:42;;;;;;;;;6.00;1.00;;;;;6.14;89.64;99455.97;5059641;28;45987;-62
2021/12/08 08:54:14;;;;;;;;;1.50;1.00;;;;;6.13;90.18;99468.03;5059850;28;45406;-63
2021/12/08 08:56:45;;;;;;;;;9.25;3.00;;;;;6.21;88.65;99467.81;5047843;28;45375;-65
2021/12/08 08:59:18;;;;;;;;;5.00;1.00;;;;;6.28;87.43;99457.25;5059513;28;45371;-61
2021/12/08 09:01:49;;;;;;;;;5.25;2.00;;;;;6.36;90.89;99457.03;5059809;28;46308;-63
2021/12/08 09:04:23;;;;;;;;;2.50;1.50;;;;;6.51;90.72;99464.28;5059325;28;45389;-65
2021/12/08 09:06:54;;;;;;;;;3.00;1.00;;;;;6.62;90.27;99456.22;5059444;28;45351;-64
2021/12/08 09:09:32;;;;;;;;;5.00;1.00;;;;;6.67;86.65;99455.19;5059360;28;45293;-62
2021/12/08 09:12:07;;;;;;;;;1.50;0.50;;;;;6.74;86.58;99466.13;5058899;28;45326;-64
2021/12/08 09:14:41;;;;;;;;;4.50;2.00;;;;;6.82;88.15;99468.50;5059443;28;45350;-67
2021/12/08 09:17:13;;;;;;;;;2.50;1.00;;;;;6.90;84.63;99480.25;5059592;28;45295;-66
2021/12/08 09:19:47;;;;;;;;;3.00;1.25;;;;;6.99;87.52;99481.66;5059405;28;45681;-68
2021/12/08 09:22:27;;;;;;;;;1.00;1.00;;;;;7.12;84.49;99487.28;5055779;28;45446;-65
2021/12/08 09:25:07;;;;;;;;;4.50;2.00;;;;;7.21;86.39;99484.41;5059030;28;45377;-66
2021/12/08 09:27:39;;;;;;;;;3.00;2.00;;;;;7.36;84.59;99495.94;5058330;28;45557;-64
2021/12/08 09:30:18;;;;;;;;;1.00;0.75;;;;;7.61;82.26;99489.91;5059172;28;45517;-64
2021/12/08 09:32:58;;;;;;;;;3.00;1.00;;;;;8.58;86.67;99492.31;5057634;28;46019;-64
2021/12/08 09:35:39;;;;;;;;;0.00;0.00;;;;;9.25;76.16;99504.31;5057475;28;45799;-63
2021/12/08 09:38:19;;;;;;;;;2.75;1.00;;;;;9.29;77.17;99498.94;5059123;28;45193;-67
2021/12/08 09:40:59;;;;;;;;;1.75;1.75;;;;;9.11;74.37;99508.31;5059358;28;45479;-62
2021/12/08 09:43:29;;;;;;;;;3.50;1.75;;;;;8.78;75.35;99515.69;5058785;28;45304;-66
2021/12/08 09:46:02;;;;;;;;;2.25;2.25;;;;;8.70;78.52;99525.50;5058982;28;45433;-64
2021/12/08 09:48:29;;;;;;;;;3.00;3.00;;;;;9.03;80.54;99512.13;5059103;28;45387;-62
2021/12/08 09:50:57;;;;;;;;;2.00;2.00;;;;;9.15;73.92;99514.19;5058502;28;45504;-59
2021/12/08 09:53:23;;;;;;;;;3.00;3.00;;;;;8.98;75.86;99512.28;5059100;28;45251;-63
2021/12/08 09:55:50;;;;;;;;;2.00;1.00;;;;;8.86;74.27;99502.44;5057493;28;45232;-62
2021/12/08 09:58:15;;;;;;;;;8.50;3.00;;;;;8.98;77.28;99503.69;5059531;28;45339;-63
2021/12/08 10:00:43;;;;;;;;;2.75;2.00;;;;;9.46;78.96;99498.22;5058825;28;45460;-62
2021/12/08 10:03:12;;;;;;;;;1.25;1.25;;;;;9.82;78.54;99488.00;5058442;28;45439;-61
2021/12/08 10:05:41;;;;;;;;;5.75;3.75;;;;;10.40;78.51;99497.50;5057042;28;46569;-63
2021/12/08 10:08:07;;;;;;;;;3.25;3.25;;;;;10.56;76.65;99488.06;5059366;28;45350;-63
2021/12/08 10:10:35;;;;;;;;;1.75;1.00;;;;;10.44;69.70;99478.28;5058814;28;45292;-63
2021/12/08 10:13:02;;;;;;;;;4.75;2.00;;;;;10.13;75.11;99482.25;5058731;28;46024;-65
2021/12/08 10:15:27;;;;;;;;;3.50;1.00;;;;;10.05;76.46;99476.59;5058474;28;45146;-62
2021/12/08 10:17:55;;;;;;;;;2.50;0.50;;;;;10.05;75.46;99479.19;5058987;28;45530;-66
2021/12/08 10:20:23;;;;;;;;;3.00;2.50;;;;;10.01;76.60;99475.88;5060077;28;45457;-63
2021/12/08 10:23:11;;;;;;;;;8.50;5.50;;;;;10.87;78.78;99471.88;5058480;28;45488;-61
2021/12/08 10:25:52;;;;;;;;;1.25;1.25;;;;;12.12;71.86;99475.84;5060084;28;45728;-61
2021/12/08 10:28:28;;;;;;;;;2.50;2.50;;;;;11.85;66.96;99473.81;5061612;28;45438;-61
2021/12/08 10:31:13;;;;;;;;;3.00;1.00;;;;;11.72;67.70;99469.28;5062217;28;45499;-62
2021/12/08 10:39:27;;;;;;;;;5.75;2.25;;;;;13.73;67.11;99470.94;5061837;28;45411;-64
2021/12/08 10:42:04;;;;;;;;;4.25;3.00;;;;;12.85;63.79;99481.38;5061926;28;45256;-62
2021/12/08 10:44:44;;;;;;;;;1.75;1.75;;;;;12.05;64.11;99480.56;5061273;28;46320;-70
2021/12/08 10:47:12;;;;;;;;;1.50;1.50;;;;;11.43;65.12;99470.81;5060680;28;45598;-68
2021/12/08 10:54:54;;;;;;;;;2.00;1.00;;;;;12.38;63.22;99466.59;5061196;28;45263;-64
2021/12/08 10:57:31;;;;;;;;;3.50;1.00;;;;;11.88;64.47;99465.81;5061576;28;45208;-66
2021/12/08 11:00:18;;;;;;;;;3.00;1.00;;;;;12.01;62.82;99465.16;5049534;28;45376;-66
2021/12/08 11:02:58;;;;;;;;;3.25;2.00;;;;;11.66;63.71;99467.00;5059346;28;45406;-69
2021/12/08 11:05:23;;;;;;;;;1.50;1.00;;;;;11.20;64.96;99477.13;5059056;28;46061;-67
2021/12/08 11:08:04;;;;;;;;;4.67;2.33;;;;;11.48;68.16;99474.84;5061095;28;45294;-68
2021/12/08 11:10:54;;;;;;;;;0.50;0.50;;;;;12.03;61.41;99471.16;5059368;28;45382;-64
2021/12/08 11:13:25;;;;;;;;;2.00;1.00;;;;;12.19;61.65;99466.78;5030245;28;45413;-67
2021/12/08 11:16:08;;;;;;;;;2.75;1.00;;;;;12.55;57.28;99471.72;5060246;28;46324;-65
2021/12/08 11:18:38;;;;;;;;;1.00;0.00;;;;;12.26;61.17;99472.50;5060496;28;45326;-61
2021/12/08 11:21:10;;;;;;;;;3.00;0.50;;;;;12.99;64.35;99479.63;5057836;28;45144;-59
2021/12/08 11:23:44;;;;;;;;;1.75;1.00;;;;;14.18;56.52;99480.34;5056684;28;45169;-62
2021/12/08 11:26:15;;;;;;;;;2.75;1.00;;;;;15.09;58.52;99473.63;5060614;28;47056;-61
2021/12/08 11:28:41;;;;;;;;;5.75;3.50;;;;;15.13;57.63;99464.63;5060837;28;45165;-61
2021/12/08 11:31:13;;;;;;;;;1.75;1.00;;;;;14.90;57.49;99465.31;5060003;28;45398;-61
2021/12/08 11:33:47;;;;;;;;;1.00;1.00;;;;;14.47;55.79;99464.66;5060308;28;45439;-59
2021/12/08 11:36:19;;;;;;;;;1.25;1.25;;;;;13.56;57.21;99473.72;5060362;28;46522;-59
2021/12/08 11:38:47;;;;;;;;;3.00;2.50;;;;;12.82;57.79;99468.50;5059102;28;45439;-60
2021/12/08 11:41:36;;;;;;;;;3.00;1.75;;;;;12.27;61.66;99464.59;5059385;28;45438;-60
2021/12/08 11:44:24;;;;;;;;;2.00;1.50;;;;;12.91;66.63;99465.38;5050317;28;45404;-61
2021/12/08 11:46:53;;;;;;;;;2.50;0.50;;;;;15.50;55.24;99465.63;5059015;28;46226;-61
2021/12/08 11:49:20;;;;;;;;;2.50;1.50;;;;;15.25;58.44;99468.22;5058400;28;45256;-59
2021/12/08 11:51:50;;;;;;;;;1.25;1.25;;;;;14.36;55.46;99464.44;5060058;28;45452;-60
2021/12/08 11:54:35;;;;;;;;;3.00;3.00;;;;;13.15;57.04;99473.53;5058858;28;45336;-59
2021/12/08 11:57:13;;;;;;;;;2.00;2.00;;;;;12.28;57.96;99471.50;5059590;28;46225;-60
2021/12/08 11:59:58;;;;;;;;;3.00;1.25;;;;;11.61;60.09;99469.81;5058158;28;45313;-60
2021/12/08 12:02:29;;;;;;;;;1.00;1.00;;;;;11.21;61.96;99484.91;5052545;28;45300;-59
2021/12/08 12:04:55;;;;;;;;;1.50;0.00;;;;;10.93;62.38;99481.97;5059313;28;45332;-60
2021/12/08 12:07:21;;;;;;;;;3.00;2.00;;;;;10.77;64.28;99486.22;5058718;28;47153;-60
2021/12/08 12:09:47;;;;;;;;;3.00;2.00;;;;;10.70;64.56;99490.88;5059807;28;45293;-59
2021/12/08 12:12:14;;;;;;;;;1.25;0.50;;;;;10.51;62.86;99493.50;5058924;28;45468;-60
2021/12/08 12:14:40;;;;;;;;;4.25;2.00;;;;;10.35;63.78;99492.53;5059532;28;45279;-60
2021/12/08 12:17:05;;;;;;;;;2.50;1.00;;;;;10.22;62.87;99507.00;5058440;28;45676;-60
2021/12/08 12:19:38;;;;;;;;;6.00;2.25;;;;;10.06;64.42;99499.03;5059267;28;45506;-60
2021/12/08 12:22:27;;;;;;;;;1.25;1.00;;;;;10.06;64.33;99505.06;5051628;28;45367;-68
2021/12/08 12:25:11;;;;;;;;;4.50;1.75;;;;;10.07;64.38;99503.31;5045896;28;45479;-60
2021/12/08 12:28:14;;;;;;;;;4.00;2.50;;;;;10.03;66.30;99505.22;5035407;28;46275;-59
2021/12/08 12:31:06;;;;;;;;;1.00;0.50;;;;;10.11;67.27;99510.03;5059130;28;45400;-60
2021/12/08 12:33:40;;;;;;;;;5.25;3.25;;;;;10.12;64.06;99508.28;5057002;28;45572;-60
2021/12/08 12:36:29;;;;;;;;;5.50;2.00;;;;;10.10;67.63;99510.13;5040923;28;45365;-60
2021/12/08 12:39:16;;;;;;;;;2.00;2.00;;;;;10.29;68.52;99514.44;5059167;28;46160;-61
2021/12/08 12:41:43;;;;;;;;;4.00;1.50;;;;;10.48;68.52;99517.03;5058408;28;45257;-60
2021/12/08 12:44:25;;;;;;;;;1.25;1.25;;;;;10.54;64.51;99524.53;5053544;28;45430;-60
2021/12/08 12:47:11;;;;;;;;;2.25;1.00;;;;;10.55;67.14;99527.97;5039637;28;45400;-61
2021/12/08 12:49:41;;;;;;;;;0.75;0.75;;;;;10.59;65.59;99532.09;5038202;28;46188;-59